sensor_id;sensor_type;location;lat;lon;timestamp;P1;durP1;ratioP1;P2;durP2;ratioP2
4726;SDS011;2377;51.734;8.950;2022-09-12T00:01:47;7.73;;;5.17;;
4726;SDS011;2377;51.734;8.950;2022-09-12T00:04:14;7.70;;;5.20;;
4726;SDS011;2377;51.734;8.950;2022-09-12T00:06:41;5.80;;;4.40;;
4726;SDS011;2377;51.734;8.950;2022-09-12T00:09:09;7.17;;;4.77;;
4726;SDS011;2377;51.734;8.950;2022-09-12T00:11:41;8.10;;;5.80;;
4726;SDS011;2377;51.734;8.950;2022-09-12T00:14:10;6.70;;;4.70;;
4726;SDS011;2377;51.734;8.950;2022-09-12T00:16:42;7.50;;;4.97;;
4726;SDS011;2377;51.734;8.950;2022-09-12T00:19:10;8.17;;;5.67;;
4726;SDS011;2377;51.734;8.950;2022-09-12T00:21:38;8.30;;;5.83;;
4726;SDS011;2377;51.734;8.950;2022-09-12T00:24:06;7.57;;;5.37;;
4726;SDS011;2377;51.734;8.950;2022-09-12T00:26:34;8.67;;;5.80;;
4726;SDS011;2377;51.734;8.950;2022-09-12T00:29:03;6.67;;;4.90;;
4726;SDS011;2377;51.734;8.950;2022-09-12T00:31:30;10.30;;;6.00;;
4726;SDS011;2377;51.734;8.950;2022-09-12T00:33:58;10.80;;;5.97;;
4726;SDS011;2377;51.734;8.950;2022-09-12T00:36:26;8.33;;;5.77;;
4726;SDS011;2377;51.734;8.950;2022-09-12T00:38:55;6.07;;;4.30;;
4726;SDS011;2377;51.734;8.950;2022-09-12T00:41:24;7.07;;;5.37;;
4726;SDS011;2377;51.734;8.950;2022-09-12T00:43:54;9.50;;;5.20;;
4726;SDS011;2377;51.734;8.950;2022-09-12T00:46:29;7.17;;;4.63;;
4726;SDS011;2377;51.734;8.950;2022-09-12T00:49:03;5.40;;;4.00;;
4726;SDS011;2377;51.734;8.950;2022-09-12T00:51:39;6.83;;;4.70;;
4726;SDS011;2377;51.734;8.950;2022-09-12T00:54:13;6.47;;;4.23;;
4726;SDS011;2377;51.734;8.950;2022-09-12T00:56:47;5.67;;;4.00;;
4726;SDS011;2377;51.734;8.950;2022-09-12T00:59:21;4.73;;;3.60;;
4726;SDS011;2377;51.734;8.950;2022-09-12T01:01:56;6.63;;;4.10;;
4726;SDS011;2377;51.734;8.950;2022-09-12T01:04:24;5.33;;;3.70;;
4726;SDS011;2377;51.734;8.950;2022-09-12T01:06:53;5.30;;;3.70;;
4726;SDS011;2377;51.734;8.950;2022-09-12T01:09:23;5.70;;;3.90;;
4726;SDS011;2377;51.734;8.950;2022-09-12T01:11:51;5.57;;;3.50;;
4726;SDS011;2377;51.734;8.950;2022-09-12T01:14:20;6.17;;;3.70;;
4726;SDS011;2377;51.734;8.950;2022-09-12T01:16:47;5.70;;;3.70;;
4726;SDS011;2377;51.734;8.950;2022-09-12T01:22:52;5.50;;;4.10;;
4726;SDS011;2377;51.734;8.950;2022-09-12T01:25:42;6.87;;;4.60;;
4726;SDS011;2377;51.734;8.950;2022-09-12T01:28:36;6.67;;;4.80;;
4726;SDS011;2377;51.734;8.950;2022-09-12T01:31:41;8.40;;;4.80;;
4726;SDS011;2377;51.734;8.950;2022-09-12T01:34:19;8.30;;;5.50;;
4726;SDS011;2377;51.734;8.950;2022-09-12T01:36:57;8.60;;;5.27;;
4726;SDS011;2377;51.734;8.950;2022-09-12T01:39:37;6.60;;;4.83;;
4726;SDS011;2377;51.734;8.950;2022-09-12T01:42:16;7.30;;;4.63;;
4726;SDS011;2377;51.734;8.950;2022-09-12T01:44:59;6.27;;;3.90;;
4726;SDS011;2377;51.734;8.950;2022-09-12T01:47:40;6.43;;;4.30;;
4726;SDS011;2377;51.734;8.950;2022-09-12T01:50:12;5.83;;;4.10;;
4726;SDS011;2377;51.734;8.950;2022-09-12T01:52:47;6.40;;;4.23;;
4726;SDS011;2377;51.734;8.950;2022-09-12T01:55:19;5.17;;;3.70;;
4726;SDS011;2377;51.734;8.950;2022-09-12T01:57:53;5.20;;;3.43;;
4726;SDS011;2377;51.734;8.950;2022-09-12T02:00:30;5.47;;;3.30;;
4726;SDS011;2377;51.734;8.950;2022-09-12T02:03:06;7.50;;;4.40;;
4726;SDS011;2377;51.734;8.950;2022-09-12T02:05:41;5.37;;;3.70;;
4726;SDS011;2377;51.734;8.950;2022-09-12T02:08:15;8.83;;;4.00;;
4726;SDS011;2377;51.734;8.950;2022-09-12T02:10:51;6.30;;;3.83;;
4726;SDS011;2377;51.734;8.950;2022-09-12T02:13:23;5.53;;;2.90;;
4726;SDS011;2377;51.734;8.950;2022-09-12T02:15:59;4.17;;;2.60;;
4726;SDS011;2377;51.734;8.950;2022-09-12T02:18:35;4.20;;;3.03;;
4726;SDS011;2377;51.734;8.950;2022-09-12T02:21:09;4.73;;;3.47;;
4726;SDS011;2377;51.734;8.950;2022-09-12T02:23:37;4.97;;;3.47;;
4726;SDS011;2377;51.734;8.950;2022-09-12T02:26:11;5.50;;;3.87;;
4726;SDS011;2377;51.734;8.950;2022-09-12T02:28:46;8.63;;;3.20;;
4726;SDS011;2377;51.734;8.950;2022-09-12T02:31:16;6.47;;;4.00;;
4726;SDS011;2377;51.734;8.950;2022-09-12T02:33:53;5.20;;;3.60;;
4726;SDS011;2377;51.734;8.950;2022-09-12T02:36:36;5.87;;;3.90;;
4726;SDS011;2377;51.734;8.950;2022-09-12T02:39:15;5.93;;;3.47;;
4726;SDS011;2377;51.734;8.950;2022-09-12T02:41:44;6.80;;;3.80;;
4726;SDS011;2377;51.734;8.950;2022-09-12T02:44:12;7.57;;;4.67;;
4726;SDS011;2377;51.734;8.950;2022-09-12T02:46:40;7.80;;;4.77;;
4726;SDS011;2377;51.734;8.950;2022-09-12T02:49:14;8.23;;;5.40;;
4726;SDS011;2377;51.734;8.950;2022-09-12T02:51:42;8.23;;;5.30;;
4726;SDS011;2377;51.734;8.950;2022-09-12T02:54:10;7.93;;;5.33;;
4726;SDS011;2377;51.734;8.950;2022-09-12T02:56:40;9.27;;;6.03;;
4726;SDS011;2377;51.734;8.950;2022-09-12T02:59:11;8.13;;;5.57;;
4726;SDS011;2377;51.734;8.950;2022-09-12T03:01:48;6.23;;;4.63;;
4726;SDS011;2377;51.734;8.950;2022-09-12T03:04:52;5.30;;;3.70;;
4726;SDS011;2377;51.734;8.950;2022-09-12T03:07:49;4.40;;;3.37;;
4726;SDS011;2377;51.734;8.950;2022-09-12T03:11:06;4.33;;;3.20;;
4726;SDS011;2377;51.734;8.950;2022-09-12T03:13:51;5.37;;;3.60;;
4726;SDS011;2377;51.734;8.950;2022-09-12T03:16:32;4.67;;;2.90;;
4726;SDS011;2377;51.734;8.950;2022-09-12T03:19:12;5.03;;;3.27;;
4726;SDS011;2377;51.734;8.950;2022-09-12T03:21:54;4.57;;;2.60;;
4726;SDS011;2377;51.734;8.950;2022-09-12T03:24:34;3.70;;;2.73;;
4726;SDS011;2377;51.734;8.950;2022-09-12T03:27:12;3.97;;;3.10;;
4726;SDS011;2377;51.734;8.950;2022-09-12T03:29:46;3.40;;;2.37;;
4726;SDS011;2377;51.734;8.950;2022-09-12T03:32:15;3.60;;;2.50;;
4726;SDS011;2377;51.734;8.950;2022-09-12T03:34:42;4.43;;;2.80;;
4726;SDS011;2377;51.734;8.950;2022-09-12T03:37:10;4.60;;;2.93;;
4726;SDS011;2377;51.734;8.950;2022-09-12T03:39:38;4.30;;;2.97;;
4726;SDS011;2377;51.734;8.950;2022-09-12T03:42:05;4.67;;;3.40;;
4726;SDS011;2377;51.734;8.950;2022-09-12T03:44:32;7.70;;;3.73;;
4726;SDS011;2377;51.734;8.950;2022-09-12T03:46:59;4.20;;;3.00;;
4726;SDS011;2377;51.734;8.950;2022-09-12T03:49:26;5.70;;;3.83;;
4726;SDS011;2377;51.734;8.950;2022-09-12T03:51:53;4.97;;;3.40;;
4726;SDS011;2377;51.734;8.950;2022-09-12T03:54:22;5.07;;;3.43;;
4726;SDS011;2377;51.734;8.950;2022-09-12T03:56:49;5.00;;;3.23;;
4726;SDS011;2377;51.734;8.950;2022-09-12T03:59:16;5.73;;;3.60;;
4726;SDS011;2377;51.734;8.950;2022-09-12T04:01:43;5.27;;;3.70;;
4726;SDS011;2377;51.734;8.950;2022-09-12T04:04:10;4.17;;;2.90;;
4726;SDS011;2377;51.734;8.950;2022-09-12T04:06:37;5.40;;;3.70;;
4726;SDS011;2377;51.734;8.950;2022-09-12T04:09:06;6.63;;;3.73;;
4726;SDS011;2377;51.734;8.950;2022-09-12T04:11:34;6.50;;;3.60;;
4726;SDS011;2377;51.734;8.950;2022-09-12T04:14:01;5.33;;;3.40;;
4726;SDS011;2377;51.734;8.950;2022-09-12T04:16:28;4.67;;;3.40;;
4726;SDS011;2377;51.734;8.950;2022-09-12T04:18:56;5.80;;;3.73;;
4726;SDS011;2377;51.734;8.950;2022-09-12T04:21:23;5.37;;;3.40;;
4726;SDS011;2377;51.734;8.950;2022-09-12T04:23:50;6.10;;;4.20;;
4726;SDS011;2377;51.734;8.950;2022-09-12T04:26:18;5.20;;;3.40;;
4726;SDS011;2377;51.734;8.950;2022-09-12T04:28:51;6.53;;;3.60;;
4726;SDS011;2377;51.734;8.950;2022-09-12T04:31:22;5.80;;;3.40;;
4726;SDS011;2377;51.734;8.950;2022-09-12T04:33:52;4.70;;;3.17;;
4726;SDS011;2377;51.734;8.950;2022-09-12T04:36:20;5.63;;;3.40;;
4726;SDS011;2377;51.734;8.950;2022-09-12T04:38:47;7.73;;;4.47;;
4726;SDS011;2377;51.734;8.950;2022-09-12T04:41:16;7.83;;;4.00;;
4726;SDS011;2377;51.734;8.950;2022-09-12T04:43:50;7.70;;;4.20;;
4726;SDS011;2377;51.734;8.950;2022-09-12T04:46:19;4.60;;;3.23;;
4726;SDS011;2377;51.734;8.950;2022-09-12T04:48:47;6.20;;;3.90;;
4726;SDS011;2377;51.734;8.950;2022-09-12T04:51:16;5.70;;;4.20;;
4726;SDS011;2377;51.734;8.950;2022-09-12T04:53:47;9.93;;;5.77;;
4726;SDS011;2377;51.734;8.950;2022-09-12T04:56:16;8.13;;;4.90;;
4726;SDS011;2377;51.734;8.950;2022-09-12T04:58:45;9.53;;;6.20;;
4726;SDS011;2377;51.734;8.950;2022-09-12T05:01:14;8.50;;;5.97;;
4726;SDS011;2377;51.734;8.950;2022-09-12T05:03:44;9.70;;;6.43;;
4726;SDS011;2377;51.734;8.950;2022-09-12T05:06:14;10.13;;;5.70;;
4726;SDS011;2377;51.734;8.950;2022-09-12T05:08:43;7.17;;;5.40;;
4726;SDS011;2377;51.734;8.950;2022-09-12T05:11:12;8.37;;;5.63;;
4726;SDS011;2377;51.734;8.950;2022-09-12T05:13:41;8.73;;;5.50;;
4726;SDS011;2377;51.734;8.950;2022-09-12T05:16:10;9.47;;;5.83;;
4726;SDS011;2377;51.734;8.950;2022-09-12T05:18:41;7.90;;;5.27;;
4726;SDS011;2377;51.734;8.950;2022-09-12T05:21:11;6.30;;;4.53;;
4726;SDS011;2377;51.734;8.950;2022-09-12T05:23:44;6.93;;;4.63;;
4726;SDS011;2377;51.734;8.950;2022-09-12T05:26:13;9.80;;;5.03;;
4726;SDS011;2377;51.734;8.950;2022-09-12T05:28:43;7.60;;;4.67;;
4726;SDS011;2377;51.734;8.950;2022-09-12T05:31:10;10.40;;;5.83;;
4726;SDS011;2377;51.734;8.950;2022-09-12T05:33:41;8.97;;;5.50;;
4726;SDS011;2377;51.734;8.950;2022-09-12T05:36:11;7.60;;;5.50;;
4726;SDS011;2377;51.734;8.950;2022-09-12T05:38:41;7.13;;;4.97;;
4726;SDS011;2377;51.734;8.950;2022-09-12T05:41:09;7.87;;;5.30;;
4726;SDS011;2377;51.734;8.950;2022-09-12T05:43:39;7.90;;;5.40;;
4726;SDS011;2377;51.734;8.950;2022-09-12T05:46:08;9.00;;;6.23;;
4726;SDS011;2377;51.734;8.950;2022-09-12T05:48:39;7.93;;;5.60;;
4726;SDS011;2377;51.734;8.950;2022-09-12T05:51:10;8.80;;;5.93;;
4726;SDS011;2377;51.734;8.950;2022-09-12T05:53:43;14.30;;;9.63;;
4726;SDS011;2377;51.734;8.950;2022-09-12T05:56:12;13.00;;;7.43;;
4726;SDS011;2377;51.734;8.950;2022-09-12T05:58:44;13.30;;;7.93;;
4726;SDS011;2377;51.734;8.950;2022-09-12T06:01:17;13.90;;;7.50;;
4726;SDS011;2377;51.734;8.950;2022-09-12T06:03:47;9.67;;;7.03;;
4726;SDS011;2377;51.734;8.950;2022-09-12T06:06:18;12.70;;;7.70;;
4726;SDS011;2377;51.734;8.950;2022-09-12T06:08:48;14.20;;;8.63;;
4726;SDS011;2377;51.734;8.950;2022-09-12T06:11:18;11.70;;;7.80;;
4726;SDS011;2377;51.734;8.950;2022-09-12T06:13:47;11.77;;;7.20;;
4726;SDS011;2377;51.734;8.950;2022-09-12T06:16:16;12.47;;;8.47;;
4726;SDS011;2377;51.734;8.950;2022-09-12T06:18:47;21.60;;;12.43;;
4726;SDS011;2377;51.734;8.950;2022-09-12T06:21:17;24.53;;;11.10;;
4726;SDS011;2377;51.734;8.950;2022-09-12T06:23:46;18.03;;;9.83;;
4726;SDS011;2377;51.734;8.950;2022-09-12T06:26:14;16.40;;;9.70;;
4726;SDS011;2377;51.734;8.950;2022-09-12T06:28:45;13.80;;;9.30;;
4726;SDS011;2377;51.734;8.950;2022-09-12T06:31:13;17.50;;;11.47;;
4726;SDS011;2377;51.734;8.950;2022-09-12T06:33:45;15.93;;;10.17;;
4726;SDS011;2377;51.734;8.950;2022-09-12T06:36:17;13.80;;;10.07;;
4726;SDS011;2377;51.734;8.950;2022-09-12T06:38:47;19.77;;;11.97;;
4726;SDS011;2377;51.734;8.950;2022-09-12T06:41:20;18.00;;;12.20;;
4726;SDS011;2377;51.734;8.950;2022-09-12T06:43:48;18.70;;;11.70;;
4726;SDS011;2377;51.734;8.950;2022-09-12T06:46:15;15.57;;;10.00;;
4726;SDS011;2377;51.734;8.950;2022-09-12T06:48:43;16.50;;;10.57;;
4726;SDS011;2377;51.734;8.950;2022-09-12T06:51:12;15.43;;;10.13;;
4726;SDS011;2377;51.734;8.950;2022-09-12T06:53:41;14.80;;;10.33;;
4726;SDS011;2377;51.734;8.950;2022-09-12T06:56:10;12.57;;;8.13;;
4726;SDS011;2377;51.734;8.950;2022-09-12T06:58:40;9.70;;;6.70;;
4726;SDS011;2377;51.734;8.950;2022-09-12T07:01:09;13.07;;;8.33;;
4726;SDS011;2377;51.734;8.950;2022-09-12T07:03:39;12.00;;;7.10;;
4726;SDS011;2377;51.734;8.950;2022-09-12T07:06:09;13.53;;;8.00;;
4726;SDS011;2377;51.734;8.950;2022-09-12T07:08:39;12.07;;;7.83;;
4726;SDS011;2377;51.734;8.950;2022-09-12T07:11:07;13.07;;;6.67;;
4726;SDS011;2377;51.734;8.950;2022-09-12T07:13:37;12.53;;;7.87;;
4726;SDS011;2377;51.734;8.950;2022-09-12T07:16:05;12.00;;;7.23;;
4726;SDS011;2377;51.734;8.950;2022-09-12T07:18:34;12.13;;;7.63;;
4726;SDS011;2377;51.734;8.950;2022-09-12T07:21:03;12.07;;;7.30;;
4726;SDS011;2377;51.734;8.950;2022-09-12T07:23:36;12.70;;;8.80;;
4726;SDS011;2377;51.734;8.950;2022-09-12T07:26:05;12.10;;;6.50;;
4726;SDS011;2377;51.734;8.950;2022-09-12T07:28:32;9.47;;;6.70;;
4726;SDS011;2377;51.734;8.950;2022-09-12T07:31:04;13.87;;;8.47;;
4726;SDS011;2377;51.734;8.950;2022-09-12T07:33:33;8.73;;;6.27;;
4726;SDS011;2377;51.734;8.950;2022-09-12T07:36:01;10.63;;;6.53;;
4726;SDS011;2377;51.734;8.950;2022-09-12T07:38:30;8.87;;;6.77;;
4726;SDS011;2377;51.734;8.950;2022-09-12T07:40:59;10.30;;;6.20;;
4726;SDS011;2377;51.734;8.950;2022-09-12T07:43:26;14.63;;;6.80;;
4726;SDS011;2377;51.734;8.950;2022-09-12T07:45:54;9.67;;;6.63;;
4726;SDS011;2377;51.734;8.950;2022-09-12T07:48:21;10.40;;;6.67;;
4726;SDS011;2377;51.734;8.950;2022-09-12T07:50:55;9.33;;;6.57;;
4726;SDS011;2377;51.734;8.950;2022-09-12T07:53:24;11.43;;;6.63;;
4726;SDS011;2377;51.734;8.950;2022-09-12T07:55:54;10.30;;;5.67;;
4726;SDS011;2377;51.734;8.950;2022-09-12T07:58:23;9.37;;;5.83;;
4726;SDS011;2377;51.734;8.950;2022-09-12T08:00:51;8.63;;;6.10;;
4726;SDS011;2377;51.734;8.950;2022-09-12T08:03:18;7.43;;;5.60;;
4726;SDS011;2377;51.734;8.950;2022-09-12T08:05:45;8.30;;;5.80;;
4726;SDS011;2377;51.734;8.950;2022-09-12T08:08:12;7.30;;;5.10;;
4726;SDS011;2377;51.734;8.950;2022-09-12T08:10:39;7.90;;;5.17;;
4726;SDS011;2377;51.734;8.950;2022-09-12T08:13:06;9.00;;;5.60;;
4726;SDS011;2377;51.734;8.950;2022-09-12T08:15:34;9.03;;;5.90;;
4726;SDS011;2377;51.734;8.950;2022-09-12T08:18:02;9.33;;;6.63;;
4726;SDS011;2377;51.734;8.950;2022-09-12T08:20:29;6.70;;;4.93;;
4726;SDS011;2377;51.734;8.950;2022-09-12T08:22:56;9.27;;;5.60;;
4726;SDS011;2377;51.734;8.950;2022-09-12T08:25:24;6.93;;;5.10;;
4726;SDS011;2377;51.734;8.950;2022-09-12T08:27:51;7.60;;;5.20;;
4726;SDS011;2377;51.734;8.950;2022-09-12T08:30:18;9.23;;;5.07;;
4726;SDS011;2377;51.734;8.950;2022-09-12T08:32:46;6.90;;;4.97;;
4726;SDS011;2377;51.734;8.950;2022-09-12T08:35:13;6.83;;;5.00;;
4726;SDS011;2377;51.734;8.950;2022-09-12T08:37:41;6.70;;;5.40;;
4726;SDS011;2377;51.734;8.950;2022-09-12T08:40:09;8.60;;;5.10;;
4726;SDS011;2377;51.734;8.950;2022-09-12T08:42:46;7.00;;;5.17;;
4726;SDS011;2377;51.734;8.950;2022-09-12T08:45:26;8.43;;;4.70;;
4726;SDS011;2377;51.734;8.950;2022-09-12T08:48:03;7.37;;;4.67;;
4726;SDS011;2377;51.734;8.950;2022-09-12T08:50:36;7.00;;;4.47;;
4726;SDS011;2377;51.734;8.950;2022-09-12T08:53:09;6.73;;;4.93;;
4726;SDS011;2377;51.734;8.950;2022-09-12T08:55:42;5.70;;;3.77;;
4726;SDS011;2377;51.734;8.950;2022-09-12T08:58:12;4.80;;;3.73;;
4726;SDS011;2377;51.734;8.950;2022-09-12T09:00:46;6.67;;;4.30;;
4726;SDS011;2377;51.734;8.950;2022-09-12T09:06:32;6.20;;;4.30;;
4726;SDS011;2377;51.734;8.950;2022-09-12T09:09:30;5.53;;;3.90;;
4726;SDS011;2377;51.734;8.950;2022-09-12T09:12:15;7.53;;;4.47;;
4726;SDS011;2377;51.734;8.950;2022-09-12T09:14:55;6.13;;;3.93;;
4726;SDS011;2377;51.734;8.950;2022-09-12T09:17:49;5.60;;;4.10;;
4726;SDS011;2377;51.734;8.950;2022-09-12T09:20:27;5.93;;;4.20;;
4726;SDS011;2377;51.734;8.950;2022-09-12T09:23:02;6.80;;;4.67;;
4726;SDS011;2377;51.734;8.950;2022-09-12T09:25:41;6.10;;;3.90;;
4726;SDS011;2377;51.734;8.950;2022-09-12T09:28:18;6.63;;;4.30;;
4726;SDS011;2377;51.734;8.950;2022-09-12T09:30:50;6.13;;;4.20;;
4726;SDS011;2377;51.734;8.950;2022-09-12T09:33:20;5.33;;;3.80;;
4726;SDS011;2377;51.734;8.950;2022-09-12T09:35:57;10.40;;;4.20;;
4726;SDS011;2377;51.734;8.950;2022-09-12T09:38:41;5.77;;;3.73;;
4726;SDS011;2377;51.734;8.950;2022-09-12T09:41:28;7.67;;;4.40;;
4726;SDS011;2377;51.734;8.950;2022-09-12T09:44:11;5.33;;;3.77;;
4726;SDS011;2377;51.734;8.950;2022-09-12T09:46:38;5.50;;;3.97;;
4726;SDS011;2377;51.734;8.950;2022-09-12T09:49:06;4.07;;;2.60;;
4726;SDS011;2377;51.734;8.950;2022-09-12T09:51:40;4.83;;;3.93;;
4726;SDS011;2377;51.734;8.950;2022-09-12T09:54:12;6.70;;;4.03;;
4726;SDS011;2377;51.734;8.950;2022-09-12T09:56:46;5.13;;;3.17;;
4726;SDS011;2377;51.734;8.950;2022-09-12T09:59:14;6.70;;;4.80;;
4726;SDS011;2377;51.734;8.950;2022-09-12T10:01:45;6.40;;;4.30;;
4726;SDS011;2377;51.734;8.950;2022-09-12T10:04:17;4.87;;;3.60;;
4726;SDS011;2377;51.734;8.950;2022-09-12T10:06:47;8.80;;;5.33;;
4726;SDS011;2377;51.734;8.950;2022-09-12T10:09:19;7.60;;;4.03;;
4726;SDS011;2377;51.734;8.950;2022-09-12T10:11:51;7.40;;;4.50;;
4726;SDS011;2377;51.734;8.950;2022-09-12T10:14:28;7.47;;;4.30;;
4726;SDS011;2377;51.734;8.950;2022-09-12T10:17:01;7.30;;;4.87;;
4726;SDS011;2377;51.734;8.950;2022-09-12T10:19:48;7.00;;;4.47;;
4726;SDS011;2377;51.734;8.950;2022-09-12T10:22:19;7.43;;;4.47;;
4726;SDS011;2377;51.734;8.950;2022-09-12T10:24:50;7.17;;;4.27;;
4726;SDS011;2377;51.734;8.950;2022-09-12T10:27:22;8.77;;;4.40;;
4726;SDS011;2377;51.734;8.950;2022-09-12T10:29:54;7.87;;;4.97;;
4726;SDS011;2377;51.734;8.950;2022-09-12T10:32:28;5.70;;;4.40;;
4726;SDS011;2377;51.734;8.950;2022-09-12T10:35:03;7.87;;;4.90;;
4726;SDS011;2377;51.734;8.950;2022-09-12T10:37:49;9.80;;;5.83;;
4726;SDS011;2377;51.734;8.950;2022-09-12T10:40:21;7.93;;;5.57;;
4726;SDS011;2377;51.734;8.950;2022-09-12T10:42:53;7.33;;;5.00;;
4726;SDS011;2377;51.734;8.950;2022-09-12T10:45:24;11.53;;;5.07;;
4726;SDS011;2377;51.734;8.950;2022-09-12T10:47:55;9.23;;;5.90;;
4726;SDS011;2377;51.734;8.950;2022-09-12T10:50:26;6.93;;;4.77;;
4726;SDS011;2377;51.734;8.950;2022-09-12T10:56:03;7.23;;;4.57;;
4726;SDS011;2377;51.734;8.950;2022-09-12T10:58:45;6.10;;;4.50;;
4726;SDS011;2377;51.734;8.950;2022-09-12T11:01:39;6.47;;;4.30;;
4726;SDS011;2377;51.734;8.950;2022-09-12T11:07:21;7.17;;;5.20;;
4726;SDS011;2377;51.734;8.950;2022-09-12T11:10:11;6.70;;;4.80;;
4726;SDS011;2377;51.734;8.950;2022-09-12T11:13:01;8.53;;;5.20;;
4726;SDS011;2377;51.734;8.950;2022-09-12T11:15:52;6.90;;;5.07;;
4726;SDS011;2377;51.734;8.950;2022-09-12T11:18:50;6.77;;;4.67;;
4726;SDS011;2377;51.734;8.950;2022-09-12T11:24:45;7.30;;;5.10;;
4726;SDS011;2377;51.734;8.950;2022-09-12T11:27:37;8.27;;;4.80;;
4726;SDS011;2377;51.734;8.950;2022-09-12T11:30:38;7.33;;;4.70;;
4726;SDS011;2377;51.734;8.950;2022-09-12T11:33:27;8.00;;;4.63;;
4726;SDS011;2377;51.734;8.950;2022-09-12T11:36:09;6.90;;;4.83;;
4726;SDS011;2377;51.734;8.950;2022-09-12T11:38:57;7.87;;;4.53;;
4726;SDS011;2377;51.734;8.950;2022-09-12T11:41:34;7.77;;;4.90;;
4726;SDS011;2377;51.734;8.950;2022-09-12T11:44:09;6.83;;;4.63;;
4726;SDS011;2377;51.734;8.950;2022-09-12T11:46:45;7.73;;;5.07;;
4726;SDS011;2377;51.734;8.950;2022-09-12T11:49:16;7.57;;;4.23;;
4726;SDS011;2377;51.734;8.950;2022-09-12T11:51:55;6.83;;;4.80;;
4726;SDS011;2377;51.734;8.950;2022-09-12T11:54:29;8.67;;;5.30;;
4726;SDS011;2377;51.734;8.950;2022-09-12T11:57:05;8.53;;;5.23;;
4726;SDS011;2377;51.734;8.950;2022-09-12T11:59:42;6.13;;;3.93;;
4726;SDS011;2377;51.734;8.950;2022-09-12T12:02:18;8.33;;;5.03;;
4726;SDS011;2377;51.734;8.950;2022-09-12T12:05:08;9.60;;;4.47;;
4726;SDS011;2377;51.734;8.950;2022-09-12T12:07:48;7.27;;;4.30;;
4726;SDS011;2377;51.734;8.950;2022-09-12T12:10:23;7.60;;;4.97;;
4726;SDS011;2377;51.734;8.950;2022-09-12T12:12:58;9.23;;;5.03;;
4726;SDS011;2377;51.734;8.950;2022-09-12T12:15:28;7.47;;;4.73;;
4726;SDS011;2377;51.734;8.950;2022-09-12T12:18:05;6.03;;;4.33;;
4726;SDS011;2377;51.734;8.950;2022-09-12T12:20:41;5.83;;;4.20;;
4726;SDS011;2377;51.734;8.950;2022-09-12T12:23:20;6.93;;;4.57;;
4726;SDS011;2377;51.734;8.950;2022-09-12T12:25:51;7.50;;;4.10;;
4726;SDS011;2377;51.734;8.950;2022-09-12T12:31:24;9.80;;;3.83;;
4726;SDS011;2377;51.734;8.950;2022-09-12T12:33:54;8.70;;;3.80;;
4726;SDS011;2377;51.734;8.950;2022-09-12T12:36:48;11.80;;;3.70;;
4726;SDS011;2377;51.734;8.950;2022-09-12T12:45:45;6.13;;;3.70;;
4726;SDS011;2377;51.734;8.950;2022-09-12T12:48:42;7.17;;;3.77;;
4726;SDS011;2377;51.734;8.950;2022-09-12T12:51:41;6.77;;;3.80;;
4726;SDS011;2377;51.734;8.950;2022-09-12T12:57:28;6.67;;;3.63;;
4726;SDS011;2377;51.734;8.950;2022-09-12T13:00:24;6.53;;;4.03;;
4726;SDS011;2377;51.734;8.950;2022-09-12T13:03:08;6.17;;;3.50;;
4726;SDS011;2377;51.734;8.950;2022-09-12T13:05:54;7.47;;;3.27;;
4726;SDS011;2377;51.734;8.950;2022-09-12T13:08:28;7.20;;;3.73;;
4726;SDS011;2377;51.734;8.950;2022-09-12T13:10:58;5.90;;;4.40;;
4726;SDS011;2377;51.734;8.950;2022-09-12T13:13:41;6.40;;;4.37;;
4726;SDS011;2377;51.734;8.950;2022-09-12T13:16:27;5.63;;;3.90;;
4726;SDS011;2377;51.734;8.950;2022-09-12T13:18:59;4.67;;;3.27;;
4726;SDS011;2377;51.734;8.950;2022-09-12T13:21:33;5.67;;;3.50;;
4726;SDS011;2377;51.734;8.950;2022-09-12T13:24:00;4.97;;;3.60;;
4726;SDS011;2377;51.734;8.950;2022-09-12T13:26:34;5.00;;;3.87;;
4726;SDS011;2377;51.734;8.950;2022-09-12T13:29:10;5.23;;;3.47;;
4726;SDS011;2377;51.734;8.950;2022-09-12T13:31:41;4.83;;;3.33;;
4726;SDS011;2377;51.734;8.950;2022-09-12T13:34:12;5.10;;;3.50;;
4726;SDS011;2377;51.734;8.950;2022-09-12T13:36:56;6.50;;;3.90;;
4726;SDS011;2377;51.734;8.950;2022-09-12T13:39:51;6.90;;;4.00;;
4726;SDS011;2377;51.734;8.950;2022-09-12T13:42:37;7.23;;;3.90;;
4726;SDS011;2377;51.734;8.950;2022-09-12T13:45:11;5.63;;;3.57;;
4726;SDS011;2377;51.734;8.950;2022-09-12T13:47:45;6.10;;;3.67;;
4726;SDS011;2377;51.734;8.950;2022-09-12T13:50:16;4.03;;;2.87;;
4726;SDS011;2377;51.734;8.950;2022-09-12T13:52:51;5.03;;;3.00;;
4726;SDS011;2377;51.734;8.950;2022-09-12T13:55:27;4.97;;;3.30;;
4726;SDS011;2377;51.734;8.950;2022-09-12T13:57:58;4.73;;;3.10;;
4726;SDS011;2377;51.734;8.950;2022-09-12T14:00:28;4.50;;;3.20;;
4726;SDS011;2377;51.734;8.950;2022-09-12T14:02:59;4.50;;;3.30;;
4726;SDS011;2377;51.734;8.950;2022-09-12T14:05:45;4.80;;;3.17;;
4726;SDS011;2377;51.734;8.950;2022-09-12T14:08:23;4.60;;;3.20;;
4726;SDS011;2377;51.734;8.950;2022-09-12T14:10:51;5.77;;;3.20;;
4726;SDS011;2377;51.734;8.950;2022-09-12T14:13:19;4.93;;;3.63;;
4726;SDS011;2377;51.734;8.950;2022-09-12T14:15:50;4.27;;;3.17;;
4726;SDS011;2377;51.734;8.950;2022-09-12T14:18:22;6.77;;;3.10;;
4726;SDS011;2377;51.734;8.950;2022-09-12T14:20:51;4.30;;;2.80;;
4726;SDS011;2377;51.734;8.950;2022-09-12T14:23:25;4.37;;;3.27;;
4726;SDS011;2377;51.734;8.950;2022-09-12T14:25:55;4.27;;;3.20;;
4726;SDS011;2377;51.734;8.950;2022-09-12T14:28:25;3.93;;;3.07;;
4726;SDS011;2377;51.734;8.950;2022-09-12T14:30:57;5.13;;;3.50;;
4726;SDS011;2377;51.734;8.950;2022-09-12T14:33:28;6.50;;;3.30;;
4726;SDS011;2377;51.734;8.950;2022-09-12T14:36:06;4.93;;;3.50;;
4726;SDS011;2377;51.734;8.950;2022-09-12T14:38:42;5.00;;;3.53;;
4726;SDS011;2377;51.734;8.950;2022-09-12T14:41:19;4.93;;;3.43;;
4726;SDS011;2377;51.734;8.950;2022-09-12T14:43:53;4.10;;;3.13;;
4726;SDS011;2377;51.734;8.950;2022-09-12T14:46:25;4.77;;;3.20;;
4726;SDS011;2377;51.734;8.950;2022-09-12T14:48:59;6.07;;;4.07;;
4726;SDS011;2377;51.734;8.950;2022-09-12T14:51:33;4.50;;;3.20;;
4726;SDS011;2377;51.734;8.950;2022-09-12T14:54:20;4.03;;;3.20;;
4726;SDS011;2377;51.734;8.950;2022-09-12T14:57:03;4.17;;;2.97;;
4726;SDS011;2377;51.734;8.950;2022-09-12T14:59:36;5.90;;;3.40;;
4726;SDS011;2377;51.734;8.950;2022-09-12T15:02:18;3.90;;;2.93;;
4726;SDS011;2377;51.734;8.950;2022-09-12T15:04:53;5.60;;;3.30;;
4726;SDS011;2377;51.734;8.950;2022-09-12T15:07:43;4.63;;;3.03;;
4726;SDS011;2377;51.734;8.950;2022-09-12T15:10:21;4.73;;;3.20;;
4726;SDS011;2377;51.734;8.950;2022-09-12T15:13:02;4.30;;;3.33;;
4726;SDS011;2377;51.734;8.950;2022-09-12T15:15:44;5.20;;;3.20;;
4726;SDS011;2377;51.734;8.950;2022-09-12T15:18:14;4.23;;;3.37;;
4726;SDS011;2377;51.734;8.950;2022-09-12T15:20:43;4.37;;;2.90;;
4726;SDS011;2377;51.734;8.950;2022-09-12T15:23:16;5.30;;;3.10;;
4726;SDS011;2377;51.734;8.950;2022-09-12T15:25:53;5.90;;;3.50;;
4726;SDS011;2377;51.734;8.950;2022-09-12T15:28:21;5.80;;;3.67;;
4726;SDS011;2377;51.734;8.950;2022-09-12T15:30:49;6.53;;;3.83;;
4726;SDS011;2377;51.734;8.950;2022-09-12T15:33:21;4.40;;;3.10;;
4726;SDS011;2377;51.734;8.950;2022-09-12T15:35:51;8.27;;;3.53;;
4726;SDS011;2377;51.734;8.950;2022-09-12T15:38:18;4.80;;;3.40;;
4726;SDS011;2377;51.734;8.950;2022-09-12T15:40:48;4.90;;;3.40;;
4726;SDS011;2377;51.734;8.950;2022-09-12T15:43:19;4.03;;;2.60;;
4726;SDS011;2377;51.734;8.950;2022-09-12T15:45:47;3.40;;;2.63;;
4726;SDS011;2377;51.734;8.950;2022-09-12T15:48:16;5.03;;;3.20;;
4726;SDS011;2377;51.734;8.950;2022-09-12T15:50:44;3.60;;;2.50;;
4726;SDS011;2377;51.734;8.950;2022-09-12T15:53:13;5.33;;;2.93;;
4726;SDS011;2377;51.734;8.950;2022-09-12T15:55:42;4.83;;;2.40;;
4726;SDS011;2377;51.734;8.950;2022-09-12T15:58:09;3.20;;;2.33;;
4726;SDS011;2377;51.734;8.950;2022-09-12T16:00:38;4.23;;;2.53;;
4726;SDS011;2377;51.734;8.950;2022-09-12T16:03:05;4.70;;;2.43;;
4726;SDS011;2377;51.734;8.950;2022-09-12T16:05:47;3.50;;;2.43;;
4726;SDS011;2377;51.734;8.950;2022-09-12T16:08:16;3.73;;;2.70;;
4726;SDS011;2377;51.734;8.950;2022-09-12T16:10:43;3.43;;;2.63;;
4726;SDS011;2377;51.734;8.950;2022-09-12T16:13:13;4.47;;;2.90;;
4726;SDS011;2377;51.734;8.950;2022-09-12T16:15:41;4.30;;;2.50;;
4726;SDS011;2377;51.734;8.950;2022-09-12T16:18:08;5.03;;;2.50;;
4726;SDS011;2377;51.734;8.950;2022-09-12T16:20:37;4.03;;;2.93;;